createdAt,value
2018-10-04T00:01:08.536Z,5.09
2018-10-04T00:03:41.815Z,5.14
2018-10-04T00:06:14.536Z,5.23
2018-10-04T00:08:46.952Z,5.15
2018-10-04T00:11:21.580Z,5.12
2018-10-04T00:13:54.216Z,5.16
2018-10-04T00:16:28.929Z,5.21
2018-10-04T00:19:03.943Z,5.22
2018-10-04T00:21:37.256Z,5.23
2018-10-04T00:24:19.629Z,5.27
2018-10-04T00:26:53.373Z,5.31
2018-10-04T00:29:26.735Z,5.34
2018-10-04T00:31:59.608Z,5.31
2018-10-04T00:34:32.168Z,5.32
2018-10-04T00:37:05.580Z,5.35
2018-10-04T00:39:40.972Z,5.47
2018-10-04T00:42:14.919Z,5.51
2018-10-04T00:44:47.980Z,5.63
2018-10-04T00:47:23.753Z,5.61
2018-10-04T00:49:58.193Z,5.73
2018-10-04T00:52:30.841Z,5.76
2018-10-04T00:55:05.430Z,5.78
2018-10-04T00:57:38.791Z,5.76
2018-10-04T01:00:13.544Z,5.72
2018-10-04T01:02:46.372Z,5.67
2018-10-04T01:05:19.009Z,5.69
2018-10-04T01:07:51.739Z,5.65
2018-10-04T01:10:24.968Z,5.61
2018-10-04T01:12:58.403Z,5.58
2018-10-04T01:15:31.892Z,5.59
2018-10-04T01:18:28.195Z,5.64
2018-10-04T01:21:02.532Z,5.72
2018-10-04T01:23:35.649Z,5.76
2018-10-04T01:26:09.602Z,5.82
2018-10-04T01:28:42.460Z,5.98
2018-10-04T01:31:15.600Z,6.03
2018-10-04T01:33:49.816Z,6.11
2018-10-04T01:36:23.172Z,6.18
2018-10-04T01:38:56.342Z,6.29
2018-10-04T01:41:29.172Z,6.38
2018-10-04T01:44:01.441Z,6.49
2018-10-04T01:46:33.838Z,6.57
2018-10-04T01:49:06.752Z,6.65
2018-10-04T01:51:46.554Z,6.85
2018-10-04T01:54:20.211Z,7.20
2018-10-04T01:56:52.850Z,7.51
2018-10-04T01:59:25.188Z,7.76
2018-10-04T02:01:57.847Z,7.98
2018-10-04T02:04:30.536Z,8.16
2018-10-04T02:07:02.911Z,8.28
2018-10-04T02:09:35.742Z,8.37
2018-10-04T02:12:08.663Z,8.46
2018-10-04T02:14:44.380Z,8.52
2018-10-04T02:17:16.808Z,8.58
2018-10-04T02:19:50.113Z,8.63
2018-10-04T02:22:22.468Z,8.71
2018-10-04T02:24:54.720Z,8.78
2018-10-04T02:27:27.458Z,8.83
2018-10-04T02:29:59.720Z,8.91
2018-10-04T02:32:32.095Z,8.99
2018-10-04T02:35:04.795Z,9.04
2018-10-04T02:37:38.039Z,9.09
2018-10-04T02:40:10.336Z,9.17
2018-10-04T02:42:43.212Z,9.27
2018-10-04T02:45:17.608Z,9.28
2018-10-04T02:47:50.086Z,9.29
2018-10-04T02:50:23.024Z,9.31
2018-10-04T02:52:55.405Z,9.35
2018-10-04T02:55:33.867Z,9.40
2018-10-04T02:58:07.679Z,9.44
2018-10-04T03:00:40.159Z,9.48
2018-10-04T03:03:12.961Z,9.53
2018-10-04T03:05:45.997Z,9.56
2018-10-04T03:08:18.872Z,9.60
2018-10-04T03:10:53.377Z,9.64
2018-10-04T03:13:25.749Z,9.66
2018-10-04T03:15:58.005Z,9.70
2018-10-04T03:18:31.744Z,9.72
2018-10-04T03:21:04.087Z,9.75
2018-10-04T03:23:36.557Z,9.77
2018-10-04T03:26:09.325Z,9.77
2018-10-04T03:28:41.833Z,9.79
2018-10-04T03:31:14.338Z,9.83
2018-10-04T03:33:47.291Z,9.86
2018-10-04T03:36:19.841Z,9.88
2018-10-04T03:38:52.633Z,9.91
2018-10-04T03:41:26.688Z,9.94
2018-10-04T03:43:59.569Z,9.97
2018-10-04T03:46:32.025Z,9.99
2018-10-04T03:49:06.997Z,10.01
2018-10-04T03:51:40.267Z,10.03
2018-10-04T03:54:12.932Z,10.06
2018-10-04T03:56:48.105Z,10.12
2018-10-04T03:59:20.660Z,10.15
2018-10-04T04:01:54.274Z,10.17
2018-10-04T04:04:29.933Z,10.18
2018-10-04T04:07:03.033Z,10.22
2018-10-04T04:09:36.452Z,10.25
2018-10-04T04:12:09.215Z,10.33
2018-10-04T04:14:42.087Z,10.35
2018-10-04T04:17:14.624Z,10.37
2018-10-04T04:19:48.409Z,10.40
2018-10-04T04:22:21.635Z,10.42
2018-10-04T04:24:56.341Z,10.43
2018-10-04T04:27:29.864Z,10.42
2018-10-04T04:30:05.302Z,10.43
2018-10-04T04:32:38.100Z,10.41
2018-10-04T04:35:11.688Z,10.40
2018-10-04T04:37:46.263Z,10.42
2018-10-04T04:40:21.240Z,10.40
2018-10-04T04:42:56.009Z,10.43
2018-10-04T04:45:30.216Z,10.46
2018-10-04T04:48:03.678Z,10.44
2018-10-04T04:50:39.369Z,10.48
2018-10-04T04:53:31.482Z,10.46
2018-10-04T04:56:04.081Z,10.44
2018-10-04T04:58:38.875Z,10.42
2018-10-04T05:01:11.760Z,10.43
2018-10-04T05:03:46.393Z,10.50
2018-10-04T05:06:20.788Z,10.58
2018-10-04T05:08:53.281Z,10.55
2018-10-04T05:11:25.976Z,10.53
2018-10-04T05:13:59.599Z,10.53
2018-10-04T05:16:33.881Z,10.54
2018-10-04T05:19:06.686Z,10.54
2018-10-04T05:21:40.108Z,10.53
2018-10-04T05:24:13.822Z,10.59
2018-10-04T05:26:49.084Z,10.58
2018-10-04T05:29:23.488Z,10.55
2018-10-04T05:32:00.408Z,10.55
2018-10-04T05:34:33.206Z,10.55
2018-10-04T05:37:07.098Z,10.55
2018-10-04T05:39:40.451Z,10.61
2018-10-04T05:42:13.399Z,10.61
2018-10-04T05:44:46.461Z,10.70
2018-10-04T05:47:21.876Z,10.69
2018-10-04T05:49:57.464Z,10.69
2018-10-04T05:52:31.864Z,10.71
2018-10-04T05:55:05.734Z,10.75
2018-10-04T05:57:39.136Z,10.78
2018-10-04T06:00:49.166Z,10.80
2018-10-04T06:03:26.325Z,10.86
2018-10-04T06:05:58.764Z,10.91
2018-10-04T06:08:34.742Z,10.96
2018-10-04T06:11:09.857Z,11.00
2018-10-04T06:13:45.169Z,11.04
2018-10-04T06:16:18.768Z,11.14
2018-10-04T06:18:51.816Z,11.15
2018-10-04T06:21:35.409Z,11.16
2018-10-04T06:24:09.611Z,11.18
2018-10-04T06:26:46.546Z,11.20
2018-10-04T06:29:20.041Z,11.24
2018-10-04T06:31:55.811Z,11.30
2018-10-04T06:34:29.126Z,11.33
2018-10-04T06:37:03.253Z,11.35
2018-10-04T06:39:39.195Z,11.37
2018-10-04T06:42:12.172Z,11.40
2018-10-04T06:44:44.732Z,11.44
2018-10-04T06:47:18.815Z,11.47
2018-10-04T06:49:57.465Z,11.59
2018-10-04T06:52:39.865Z,11.58
2018-10-04T06:55:14.160Z,11.64
2018-10-04T06:57:48.139Z,11.63
2018-10-04T07:00:25.716Z,11.63
2018-10-04T07:03:00.733Z,11.66
2018-10-04T07:05:36.309Z,11.70
2018-10-04T07:08:11.312Z,11.84
2018-10-04T07:10:45.934Z,11.97
2018-10-04T07:13:20.080Z,11.95
2018-10-04T07:15:59.551Z,11.95
2018-10-04T07:18:33.479Z,11.95
2018-10-04T07:21:07.402Z,11.98
2018-10-04T07:23:41.169Z,12.08
2018-10-04T07:26:16.493Z,12.08
2018-10-04T07:28:51.867Z,12.06
2018-10-04T07:31:31.035Z,12.04
2018-10-04T07:34:07.160Z,12.03
2018-10-04T07:36:46.504Z,12.01
2018-10-04T07:39:37.954Z,12.05
2018-10-04T07:42:12.998Z,12.04
2018-10-04T07:44:50.682Z,12.07
2018-10-04T07:47:30.019Z,12.09
2018-10-04T07:50:03.834Z,12.19
2018-10-04T07:52:43.073Z,12.20
2018-10-04T07:55:29.530Z,12.21
2018-10-04T07:58:05.376Z,12.27
2018-10-04T08:00:40.801Z,12.29
2018-10-04T08:03:15.689Z,12.30
2018-10-04T08:05:49.782Z,12.32
2018-10-04T08:08:24.824Z,12.31
2018-10-04T08:11:01.757Z,12.34
2018-10-04T08:13:39.730Z,12.37
2018-10-04T08:16:15.997Z,12.40
2018-10-04T08:18:51.623Z,12.47
2018-10-04T08:21:26.559Z,12.46
2018-10-04T08:24:05.978Z,12.46
2018-10-04T08:26:42.037Z,12.50
2018-10-04T08:29:19.249Z,12.54
2018-10-04T08:32:00.021Z,12.60
2018-10-04T08:34:34.956Z,12.72
2018-10-04T08:37:17.504Z,12.78
2018-10-04T08:39:51.632Z,12.82
2018-10-04T08:42:25.498Z,12.86
2018-10-04T08:45:04.413Z,12.92
2018-10-04T08:47:38.720Z,12.97
2018-10-04T08:50:16.411Z,13.05
2018-10-04T08:53:01.552Z,13.18
2018-10-04T08:55:37.560Z,13.31
2018-10-04T08:58:14.059Z,13.40
2018-10-04T09:00:47.980Z,13.46
2018-10-04T09:03:21.371Z,13.53
2018-10-04T09:05:56.362Z,13.68
2018-10-04T09:08:31.109Z,13.66
2018-10-04T09:11:06.885Z,13.69
2018-10-04T09:13:48.340Z,13.76
2018-10-04T09:16:24.481Z,13.79
2018-10-04T09:19:01.449Z,13.87
2018-10-04T09:21:36.820Z,13.96
2018-10-04T09:24:18.444Z,14.03
2018-10-04T09:26:59.367Z,14.11
2018-10-04T09:29:45.376Z,14.14
2018-10-04T09:32:24.524Z,14.26
2018-10-04T09:35:09.639Z,14.39
2018-10-04T09:37:45.999Z,14.47
2018-10-04T09:40:22.667Z,14.55
2018-10-04T09:43:02.026Z,14.69
2018-10-04T09:45:40.608Z,14.87
2018-10-04T09:48:21.565Z,14.88
2018-10-04T09:51:08.654Z,14.95
2018-10-04T09:53:51.516Z,15.02
2018-10-04T09:56:31.466Z,15.11
2018-10-04T09:59:06.490Z,15.18
2018-10-04T10:01:46.297Z,15.16
2018-10-04T10:04:19.898Z,15.13
2018-10-04T10:06:52.674Z,15.33
2018-10-04T10:09:26.968Z,15.33
2018-10-04T10:12:00.744Z,15.31
2018-10-04T10:14:34.565Z,15.32
2018-10-04T10:17:07.396Z,15.31
2018-10-04T10:19:39.927Z,15.39
2018-10-04T10:22:13.336Z,15.55
2018-10-04T10:24:47.508Z,15.60
2018-10-04T10:27:21.161Z,15.64
2018-10-04T10:29:56.601Z,15.79
2018-10-04T10:32:31.128Z,15.89
2018-10-04T10:35:03.660Z,15.82
2018-10-04T10:37:36.188Z,15.82
2018-10-04T10:40:10.379Z,15.84
2018-10-04T10:42:42.993Z,15.99
2018-10-04T10:45:17.952Z,16.18
2018-10-04T10:47:52.695Z,16.33
2018-10-04T10:50:25.788Z,16.35
2018-10-04T10:53:00.337Z,16.37
2018-10-04T10:55:33.134Z,16.39
2018-10-04T10:58:05.792Z,16.49
2018-10-04T11:00:40.245Z,16.51
2018-10-04T11:03:14.271Z,16.53
2018-10-04T11:05:48.329Z,16.44
2018-10-04T11:08:24.355Z,16.35
2018-10-04T11:10:58.107Z,16.43
2018-10-04T11:13:33.076Z,16.40
2018-10-04T11:16:08.999Z,16.47
2018-10-04T11:18:43.528Z,16.68
2018-10-04T11:21:16.403Z,16.83
2018-10-04T11:23:52.279Z,16.90
2018-10-04T11:26:24.842Z,16.90
2018-10-04T11:28:57.353Z,16.89
2018-10-04T11:31:32.296Z,16.92
2018-10-04T11:34:05.081Z,17.04
2018-10-04T11:36:39.679Z,17.04
2018-10-04T11:39:12.773Z,17.10
2018-10-04T11:41:47.345Z,17.09
2018-10-04T11:44:23.443Z,17.02
2018-10-04T11:47:02.449Z,16.98
2018-10-04T11:49:35.637Z,16.91
2018-10-04T11:52:13.858Z,17.04
2018-10-04T11:54:46.830Z,17.13
2018-10-04T11:57:20.793Z,17.11
2018-10-04T11:59:55.113Z,17.09
2018-10-04T12:02:31.404Z,17.15
2018-10-04T12:05:07.177Z,17.24
2018-10-04T12:07:40.073Z,17.39
2018-10-04T12:10:13.595Z,17.59
2018-10-04T12:12:48.495Z,17.62
2018-10-04T12:15:21.555Z,17.57
2018-10-04T12:17:54.025Z,17.61
2018-10-04T12:20:27.675Z,17.75
2018-10-04T12:23:04.173Z,17.87
2018-10-04T12:25:36.758Z,17.98
2018-10-04T12:28:09.339Z,18.05
2018-10-04T12:30:41.997Z,18.02
2018-10-04T12:33:15.918Z,17.82
2018-10-04T12:35:48.949Z,17.88
2018-10-04T12:38:23.286Z,18.07
2018-10-04T12:40:58.390Z,18.21
2018-10-04T12:43:38.084Z,18.29
2018-10-04T12:46:11.333Z,18.31
2018-10-04T12:48:45.268Z,18.33
2018-10-04T12:51:18.125Z,18.15
2018-10-04T12:53:51.336Z,18.00
2018-10-04T12:56:24.401Z,17.75
2018-10-04T12:58:57.651Z,17.66
2018-10-04T13:01:30.352Z,17.79
2018-10-04T13:04:03.311Z,17.83
2018-10-04T13:06:37.759Z,17.95
2018-10-04T13:09:13.938Z,18.13
2018-10-04T13:11:48.208Z,18.58
2018-10-04T13:14:23.374Z,18.82
2018-10-04T13:16:56.065Z,19.02
2018-10-04T13:19:28.830Z,19.33
2018-10-04T13:22:06.857Z,19.63
2018-10-04T13:24:39.887Z,19.69
2018-10-04T13:27:13.629Z,19.69
2018-10-04T13:29:47.878Z,19.53
2018-10-04T13:32:21.082Z,19.45
2018-10-04T13:34:54.729Z,19.46
2018-10-04T13:37:30.825Z,19.69
2018-10-04T13:40:03.486Z,19.65
2018-10-04T13:42:37.248Z,19.42
2018-10-04T13:45:10.579Z,19.50
2018-10-04T13:47:45.324Z,19.67
2018-10-04T13:50:18.904Z,19.64
2018-10-04T13:52:51.462Z,19.78
2018-10-04T13:55:25.498Z,19.55
2018-10-04T13:57:59.830Z,19.57
2018-10-04T14:00:32.577Z,19.45
2018-10-04T14:03:06.120Z,19.41
2018-10-04T14:05:40.284Z,19.63
2018-10-04T14:08:13.498Z,19.61
2018-10-04T14:10:47.241Z,19.60
2018-10-04T14:13:20.672Z,19.73
2018-10-04T14:15:55.087Z,19.98
2018-10-04T14:18:29.901Z,20.25
2018-10-04T14:21:04.545Z,20.44
2018-10-04T14:23:39.003Z,20.51
2018-10-04T14:26:11.678Z,20.42
2018-10-04T14:28:44.388Z,20.44
2018-10-04T14:31:18.489Z,20.22
2018-10-04T14:33:51.065Z,20.08
2018-10-04T14:36:24.657Z,19.77
2018-10-04T14:38:58.458Z,19.54
2018-10-04T14:41:31.092Z,19.42
2018-10-04T14:44:03.766Z,19.35
2018-10-04T14:46:39.819Z,19.54
2018-10-04T14:49:14.389Z,19.81
2018-10-04T14:51:47.236Z,19.80
2018-10-04T14:54:21.814Z,20.12
2018-10-04T14:56:58.528Z,20.40
2018-10-04T14:59:31.164Z,20.57
2018-10-04T15:02:06.640Z,20.55
2018-10-04T15:04:40.140Z,20.60
2018-10-04T15:07:13.006Z,20.71
2018-10-04T15:09:48.037Z,20.65
2018-10-04T15:12:21.608Z,20.29
2018-10-04T15:14:57.561Z,19.98
2018-10-04T15:17:31.757Z,19.95
2018-10-04T15:20:06.306Z,19.88
2018-10-04T15:22:39.198Z,19.89
2018-10-04T15:25:14.770Z,19.85
2018-10-04T15:27:50.674Z,19.84
2018-10-04T15:30:23.659Z,19.69
2018-10-04T15:32:58.933Z,19.60
2018-10-04T15:35:32.945Z,19.67
2018-10-04T15:38:11.905Z,19.80
2018-10-04T15:40:45.275Z,19.73
2018-10-04T15:43:20.018Z,19.66
2018-10-04T15:45:54.330Z,19.62
2018-10-04T15:48:27.067Z,19.59
2018-10-04T15:50:59.805Z,19.52
2018-10-04T15:53:33.407Z,19.51
2018-10-04T15:56:16.330Z,19.43
2018-10-04T15:58:56.800Z,19.47
2018-10-04T16:01:32.961Z,19.41
2018-10-04T16:04:08.017Z,19.37
2018-10-04T16:06:45.559Z,19.32
2018-10-04T16:09:27.810Z,19.25
2018-10-04T16:12:03.308Z,19.09
2018-10-04T16:14:40.749Z,19.07
2018-10-04T16:17:14.823Z,19.00
2018-10-04T16:19:50.005Z,19.00
2018-10-04T16:22:27.799Z,18.91
2018-10-04T16:25:04.656Z,18.83
2018-10-04T16:27:44.926Z,18.68
2018-10-04T16:30:18.349Z,18.44
2018-10-04T16:32:55.299Z,18.19
2018-10-04T16:35:30.072Z,17.93
2018-10-04T16:38:07.304Z,17.73
2018-10-04T16:40:40.726Z,17.55
2018-10-04T16:43:13.497Z,17.38
2018-10-04T16:45:46.343Z,17.19
2018-10-04T16:48:22.064Z,16.95
2018-10-04T16:50:57.497Z,16.77
2018-10-04T16:53:30.205Z,16.63
2018-10-04T16:56:03.203Z,16.48
2018-10-04T16:58:36.484Z,16.27
2018-10-04T17:01:09.152Z,16.09
2018-10-04T17:03:44.196Z,15.90
2018-10-04T17:06:18.154Z,15.67
2018-10-04T17:08:52.883Z,15.52
2018-10-04T17:11:29.148Z,15.36
2018-10-04T17:14:03.096Z,15.21
2018-10-04T17:16:41.355Z,15.04
2018-10-04T17:19:17.942Z,14.86
2018-10-04T17:21:52.274Z,14.74
2018-10-04T17:24:30.514Z,14.58
2018-10-04T17:27:07.601Z,14.43
2018-10-04T17:29:42.859Z,14.28
2018-10-04T17:32:16.943Z,14.12
2018-10-04T17:34:51.216Z,13.94
2018-10-04T17:37:25.570Z,13.81
2018-10-04T17:40:00.259Z,13.70
2018-10-04T17:42:39.461Z,13.55
2018-10-04T17:45:21.912Z,13.39
2018-10-04T17:47:58.214Z,13.19
2018-10-04T17:50:42.774Z,13.03
2018-10-04T17:53:27.724Z,12.89
2018-10-04T17:56:08.770Z,12.71
2018-10-04T17:58:55.177Z,12.57
2018-10-04T18:01:30.163Z,12.41
2018-10-04T18:04:04.248Z,12.27
2018-10-04T18:06:37.605Z,12.12
2018-10-04T18:09:11.405Z,11.99
2018-10-04T18:11:50.849Z,11.91
2018-10-04T18:14:25.197Z,11.87
2018-10-04T18:17:06.327Z,11.78
2018-10-04T18:19:41.677Z,11.67
2018-10-04T18:22:22.491Z,11.57
2018-10-04T18:24:55.909Z,11.47
2018-10-04T18:27:34.409Z,11.31
2018-10-04T18:30:10.332Z,11.18
2018-10-04T18:32:49.028Z,11.01
2018-10-04T18:35:24.933Z,10.88
2018-10-04T18:38:03.368Z,10.74
2018-10-04T18:40:35.930Z,10.62
2018-10-04T18:43:10.567Z,10.48
2018-10-04T18:45:43.233Z,10.35
2018-10-04T18:48:15.983Z,10.22
2018-10-04T18:50:48.722Z,10.08
2018-10-04T18:53:23.928Z,9.96
2018-10-04T18:55:58.756Z,9.85
2018-10-04T18:58:36.049Z,9.76
2018-10-04T19:01:16.131Z,9.74
2018-10-04T19:03:50.524Z,9.77
2018-10-04T19:06:24.741Z,9.71
2018-10-04T19:09:01.132Z,9.71
2018-10-04T19:11:35.478Z,9.59
2018-10-04T19:14:09.397Z,9.46
2018-10-04T19:16:45.737Z,9.40
2018-10-04T19:19:24.347Z,9.36
2018-10-04T19:21:57.204Z,9.30
2018-10-04T19:24:31.007Z,9.32
2018-10-04T19:27:08.025Z,9.31
2018-10-04T19:29:42.321Z,9.23
2018-10-04T19:32:16.833Z,9.16
2018-10-04T19:34:56.299Z,9.06
2018-10-04T19:37:30.851Z,9.00
2018-10-04T19:40:07.333Z,9.04
2018-10-04T19:42:41.927Z,9.02
2018-10-04T19:45:20.003Z,8.99
2018-10-04T19:47:53.926Z,9.12
2018-10-04T19:50:28.048Z,9.23
2018-10-04T19:53:02.192Z,9.19
2018-10-04T19:55:37.168Z,9.12
2018-10-04T19:58:10.772Z,9.26
2018-10-04T20:00:43.890Z,9.26
2018-10-04T20:03:20.126Z,9.11
2018-10-04T20:05:53.106Z,8.97
2018-10-04T20:08:25.832Z,8.84
2018-10-04T20:10:59.199Z,8.82
2018-10-04T20:13:32.265Z,8.87
2018-10-04T20:16:10.067Z,8.98
2018-10-04T20:18:43.654Z,9.05
2018-10-04T20:21:17.837Z,9.11
2018-10-04T20:23:53.133Z,9.25
2018-10-04T20:26:34.378Z,9.26
2018-10-04T20:29:07.695Z,9.17
2018-10-04T20:31:44.525Z,9.12
2018-10-04T20:34:22.249Z,9.05
2018-10-04T20:36:55.750Z,9.06
2018-10-04T20:39:29.295Z,9.09
2018-10-04T20:42:02.814Z,9.11
2018-10-04T20:44:37.208Z,9.18
2018-10-04T20:47:15.813Z,9.16
2018-10-04T20:49:53.912Z,9.15
2018-10-04T20:52:29.020Z,9.27
2018-10-04T20:55:05.564Z,9.31
2018-10-04T20:57:39.455Z,9.30
2018-10-04T21:00:21.444Z,9.25
2018-10-04T21:02:56.333Z,9.18
2018-10-04T21:05:31.207Z,9.18
2018-10-04T21:08:06.796Z,9.32
2018-10-04T21:10:41.369Z,9.37
2018-10-04T21:13:15.708Z,9.50
2018-10-04T21:15:54.751Z,9.57
2018-10-04T21:18:31.153Z,9.49
2018-10-04T21:21:05.538Z,9.45
2018-10-04T21:23:42.776Z,9.46
2018-10-04T21:26:16.255Z,9.52
2018-10-04T21:28:48.916Z,9.77
2018-10-04T21:31:26.485Z,9.83
2018-10-04T21:33:59.745Z,9.88
2018-10-04T21:36:33.231Z,9.90
2018-10-04T21:39:08.432Z,9.93
2018-10-04T21:41:41.513Z,9.95
2018-10-04T21:44:14.225Z,10.07
2018-10-04T21:46:47.150Z,10.28
2018-10-04T21:49:20.704Z,10.42
2018-10-04T21:51:53.452Z,10.49
2018-10-04T21:54:28.028Z,10.58
2018-10-04T21:57:01.488Z,10.69
2018-10-04T21:59:40.269Z,10.84
2018-10-04T22:02:14.203Z,11.00
2018-10-04T22:04:58.808Z,11.19
2018-10-04T22:07:32.431Z,11.27
2018-10-04T22:10:05.036Z,11.29
2018-10-04T22:12:38.283Z,11.32
2018-10-04T22:15:13.755Z,11.43
2018-10-04T22:17:49.707Z,11.53
2018-10-04T22:20:25.059Z,11.61
2018-10-04T22:22:58.589Z,11.76
2018-10-04T22:25:32.872Z,11.92
2018-10-04T22:28:06.946Z,12.00
2018-10-04T22:30:41.266Z,11.98
2018-10-04T22:33:14.680Z,11.99
2018-10-04T22:35:50.194Z,12.03
2018-10-04T22:38:23.381Z,12.05
2018-10-04T22:40:57.460Z,12.05
2018-10-04T22:43:34.984Z,12.05
2018-10-04T22:46:10.684Z,12.12
2018-10-04T22:48:43.273Z,12.10
2018-10-04T22:51:16.104Z,12.09
2018-10-04T22:53:48.612Z,12.07
2018-10-04T22:56:21.268Z,12.03
2018-10-04T22:58:54.180Z,12.00
2018-10-04T23:01:27.329Z,12.06
2018-10-04T23:04:02.692Z,12.08
2018-10-04T23:06:36.021Z,12.03
2018-10-04T23:09:08.698Z,12.04
2018-10-04T23:11:41.232Z,12.01
2018-10-04T23:14:14.756Z,11.96
2018-10-04T23:16:47.959Z,11.96
2018-10-04T23:19:21.468Z,11.96
2018-10-04T23:21:54.596Z,11.88
2018-10-04T23:24:28.685Z,11.75
2018-10-04T23:27:01.139Z,11.69
2018-10-04T23:29:34.144Z,11.74
2018-10-04T23:32:06.755Z,11.74
2018-10-04T23:34:39.528Z,11.73
2018-10-04T23:37:12.480Z,11.67
2018-10-04T23:39:45.099Z,11.69
2018-10-04T23:42:17.668Z,11.67
2018-10-04T23:44:50.841Z,11.66
2018-10-04T23:47:24.410Z,11.67
2018-10-04T23:49:57.018Z,11.81
2018-10-04T23:52:30.002Z,11.81
2018-10-04T23:55:03.468Z,11.74
2018-10-04T23:57:35.960Z,11.66
